createdAt,value
2023-05-20T00:02:44.554Z,102811.40
2023-05-20T00:06:22.063Z,102803.05
2023-05-20T00:10:00.021Z,102805.29
2023-05-20T00:13:37.948Z,102807.20
2023-05-20T00:17:15.757Z,102805.64
2023-05-20T00:20:54.833Z,102805.98
2023-05-20T00:24:32.772Z,102800.00
2023-05-20T00:28:08.117Z,102804.52
2023-05-20T00:31:46.261Z,102803.48
2023-05-20T00:35:23.439Z,102802.16
2023-05-20T00:39:01.195Z,102800.17
2023-05-20T00:42:38.779Z,102797.04
2023-05-20T00:46:16.637Z,102794.94
2023-05-20T00:49:54.217Z,102793.84
2023-05-20T00:53:31.920Z,102788.98
2023-05-20T00:57:10.254Z,102787.46
2023-05-20T01:00:47.132Z,102792.09
2023-05-20T01:04:27.433Z,102799.08
2023-05-20T01:08:02.547Z,102805.05
2023-05-20T01:11:48.676Z,102807.54
2023-05-20T01:15:19.448Z,102802.45
2023-05-20T01:18:57.558Z,102800.66
2023-05-20T01:22:33.668Z,102795.42
2023-05-20T01:26:14.062Z,102794.55
2023-05-20T01:29:53.561Z,102792.29
2023-05-20T01:33:29.810Z,102789.13
2023-05-20T01:37:06.653Z,102790.85
2023-05-20T01:40:43.360Z,102790.66
2023-05-20T01:44:19.479Z,102793.02
2023-05-20T01:47:57.040Z,102789.73
2023-05-20T01:51:35.527Z,102785.37
2023-05-20T01:55:12.476Z,102783.33
2023-05-20T01:58:50.075Z,102783.02
2023-05-20T02:02:27.632Z,102780.08
2023-05-20T02:06:05.709Z,102778.84
2023-05-20T02:09:42.801Z,102776.86
2023-05-20T02:13:22.334Z,102778.97
2023-05-20T02:16:58.298Z,102775.78
2023-05-20T02:20:37.404Z,102769.98
2023-05-20T02:24:13.524Z,102777.74
2023-05-20T02:27:51.522Z,102774.73
2023-05-20T02:31:28.902Z,102772.92
2023-05-20T02:35:07.655Z,102770.61
2023-05-20T02:38:44.774Z,102773.19
2023-05-20T02:42:22.473Z,102768.14
2023-05-20T02:45:59.751Z,102765.60
2023-05-20T02:49:37.441Z,102761.66
2023-05-20T02:53:15.131Z,102764.91
2023-05-20T02:56:52.977Z,102756.83
2023-05-20T03:00:35.683Z,102754.52
2023-05-20T03:04:08.534Z,102753.17
2023-05-20T03:07:46.537Z,102750.95
2023-05-20T03:11:23.714Z,102754.30
2023-05-20T03:15:01.363Z,102755.60
2023-05-20T03:18:39.555Z,102759.27
2023-05-20T03:22:16.839Z,102767.02
2023-05-20T03:25:54.155Z,102767.42
2023-05-20T03:29:32.145Z,102767.50
2023-05-20T03:33:10.025Z,102767.61
2023-05-20T03:36:51.273Z,102769.06
2023-05-20T03:40:25.292Z,102762.74
2023-05-20T03:44:02.991Z,102762.13
2023-05-20T03:47:40.902Z,102759.79
2023-05-20T03:51:18.569Z,102760.41
2023-05-20T03:54:56.238Z,102765.38
2023-05-20T03:58:33.430Z,102764.35
2023-05-20T04:02:11.158Z,102765.63
2023-05-20T04:05:49.342Z,102766.23
2023-05-20T04:09:27.599Z,102764.17
2023-05-20T04:13:04.386Z,102761.82
2023-05-20T04:16:42.041Z,102759.95
2023-05-20T04:20:20.406Z,102754.61
2023-05-20T04:23:57.301Z,102749.44
2023-05-20T04:27:34.592Z,102741.30
2023-05-20T04:31:12.718Z,102743.55
2023-05-20T04:34:50.796Z,102737.68
2023-05-20T04:38:32.486Z,102739.65
2023-05-20T04:42:05.438Z,102744.35
2023-05-20T04:45:43.053Z,102747.82
2023-05-20T04:49:20.980Z,102753.06
2023-05-20T04:52:59.185Z,102753.02
2023-05-20T04:56:36.472Z,102756.92
2023-05-20T05:00:22.791Z,102753.51
2023-05-20T05:03:51.533Z,102755.98
2023-05-20T05:07:29.209Z,102757.89
2023-05-20T05:11:07.252Z,102758.02
2023-05-20T05:14:44.534Z,102761.91
2023-05-20T05:18:22.305Z,102759.93
2023-05-20T05:21:59.738Z,102757.58
2023-05-20T05:25:38.151Z,102757.66
2023-05-20T05:29:15.388Z,102758.86
2023-05-20T05:32:53.324Z,102767.02
2023-05-20T05:36:34.225Z,102764.73
2023-05-20T05:40:10.537Z,102763.84
2023-05-20T05:43:45.913Z,102764.80
2023-05-20T05:47:23.566Z,102758.58
2023-05-20T05:51:01.601Z,102758.54
2023-05-20T05:54:38.801Z,102757.09
2023-05-20T05:58:17.442Z,102753.79
2023-05-20T06:01:54.712Z,102746.73
2023-05-20T06:05:32.701Z,102746.27
2023-05-20T06:09:09.691Z,102748.11
2023-05-20T06:12:47.096Z,102748.28
2023-05-20T06:16:25.062Z,102749.52
2023-05-20T06:20:02.678Z,102751.97
2023-05-20T06:23:40.358Z,102755.89
2023-05-20T06:27:17.880Z,102757.11
2023-05-20T06:30:56.180Z,102755.07
2023-05-20T06:34:33.417Z,102754.57
2023-05-20T06:38:11.240Z,102752.50
2023-05-20T06:41:48.827Z,102758.69
2023-05-20T06:45:26.509Z,102761.87
2023-05-20T06:49:04.420Z,102762.48
2023-05-20T06:52:41.928Z,102769.58
2023-05-20T06:56:19.513Z,102773.66
2023-05-20T06:59:57.399Z,102773.11
2023-05-20T07:03:35.113Z,102767.98
2023-05-20T07:07:14.109Z,102764.36
2023-05-20T07:10:50.414Z,102762.94
2023-05-20T07:14:27.788Z,102766.52
2023-05-20T07:18:05.420Z,102764.31
2023-05-20T07:21:43.248Z,102761.52
2023-05-20T07:25:20.617Z,102755.96
2023-05-20T07:28:59.005Z,102754.48
2023-05-20T07:32:36.066Z,102746.98
2023-05-20T07:36:13.845Z,102746.05
2023-05-20T07:39:51.485Z,102743.55
2023-05-20T07:43:29.181Z,102741.73
2023-05-20T07:47:06.806Z,102739.15
2023-05-20T07:50:44.753Z,102741.93
2023-05-20T07:54:23.615Z,102740.81
2023-05-20T07:57:59.894Z,102741.19
2023-05-20T08:01:37.393Z,102739.75
2023-05-20T08:05:15.296Z,102734.95
2023-05-20T08:08:56.139Z,102733.05
2023-05-20T08:12:30.744Z,102734.98
2023-05-20T08:16:08.182Z,102733.57
2023-05-20T08:19:45.777Z,102728.67
2023-05-20T08:23:23.294Z,102729.81
2023-05-20T08:27:01.351Z,102725.58
2023-05-20T08:30:39.951Z,102727.48
2023-05-20T08:34:16.631Z,102729.66
2023-05-20T08:37:56.993Z,102724.79
2023-05-20T08:41:32.110Z,102726.56
2023-05-20T08:45:13.147Z,102726.35
2023-05-20T08:48:48.385Z,102724.61
2023-05-20T08:52:25.747Z,102727.88
2023-05-20T08:56:05.557Z,102727.80
2023-05-20T08:59:45.736Z,102728.46
2023-05-20T09:03:18.805Z,102729.08
2023-05-20T09:06:56.104Z,102729.48
2023-05-20T09:10:34.037Z,102738.98
2023-05-20T09:14:11.133Z,102744.52
2023-05-20T09:17:50.250Z,102741.34
2023-05-20T09:21:29.425Z,102741.40
2023-05-20T09:25:04.247Z,102734.56
2023-05-20T09:28:41.654Z,102738.25
2023-05-20T09:32:24.426Z,102736.13
2023-05-20T09:36:12.023Z,102733.48
2023-05-20T09:39:45.896Z,102738.99
2023-05-20T09:43:13.785Z,102738.80
2023-05-20T09:46:51.503Z,102741.76
2023-05-20T09:50:29.179Z,102741.30
2023-05-20T09:54:08.495Z,102741.13
2023-05-20T09:57:43.396Z,102743.30
2023-05-20T10:01:20.879Z,102742.94
2023-05-20T10:05:02.062Z,102743.01
2023-05-20T10:08:59.100Z,102739.98
2023-05-20T10:12:23.123Z,102735.95
2023-05-20T10:16:16.470Z,102732.10
2023-05-20T10:19:35.778Z,102727.71
2023-05-20T10:23:22.311Z,102724.91
2023-05-20T10:26:56.709Z,102723.30
2023-05-20T10:30:25.428Z,102719.30
2023-05-20T10:34:02.750Z,102710.72
2023-05-20T10:37:44.857Z,102707.57
2023-05-20T10:41:22.127Z,102713.41
2023-05-20T10:44:56.384Z,102716.33
2023-05-20T10:48:34.094Z,102710.86
2023-05-20T10:52:11.459Z,102707.78
2023-05-20T10:55:54.929Z,102704.13
2023-05-20T10:59:26.925Z,102705.93
2023-05-20T11:03:06.602Z,102699.02
2023-05-20T11:06:56.186Z,102694.46
2023-05-20T11:10:22.186Z,102691.13
2023-05-20T11:13:57.714Z,102688.14
2023-05-20T11:17:55.309Z,102685.52
2023-05-20T11:21:12.722Z,102683.41
2023-05-20T11:24:49.955Z,102678.00
2023-05-20T11:28:27.541Z,102682.52
2023-05-20T11:32:06.820Z,102682.67
2023-05-20T11:35:51.474Z,102681.28
2023-05-20T11:39:23.740Z,102677.50
2023-05-20T11:43:00.650Z,102680.54
2023-05-20T11:46:50.004Z,102679.10
2023-05-20T11:50:22.927Z,102668.36
2023-05-20T11:53:51.826Z,102660.58
2023-05-20T11:57:34.611Z,102657.89
2023-05-20T12:01:21.009Z,102657.67
2023-05-20T12:04:45.822Z,102660.16
2023-05-20T12:08:23.417Z,102661.44
2023-05-20T12:12:05.966Z,102658.48
2023-05-20T12:15:43.547Z,102654.27
2023-05-20T12:22:53.527Z,102644.34
2023-05-20T12:26:31.593Z,102645.77
2023-05-20T12:30:10.576Z,102642.18
2023-05-20T12:33:46.782Z,102645.36
2023-05-20T12:37:26.473Z,102642.98
2023-05-20T12:41:03.955Z,102637.67
2023-05-20T12:44:43.751Z,102636.13
2023-05-20T12:48:17.111Z,102630.16
2023-05-20T12:52:21.866Z,102628.06
2023-05-20T12:55:44.480Z,102631.79
2023-05-20T12:59:11.571Z,102628.38
2023-05-20T13:02:56.710Z,102627.65
2023-05-20T13:06:25.290Z,102620.45
2023-05-20T13:10:06.443Z,102614.16
2023-05-20T13:13:59.554Z,102609.37
2023-05-20T13:17:19.365Z,102605.36
2023-05-20T13:20:59.500Z,102602.80
2023-05-20T13:24:34.958Z,102601.59
2023-05-20T13:28:17.005Z,102592.23
2023-05-20T13:31:54.109Z,102584.30
2023-05-20T13:35:26.445Z,102584.96
2023-05-20T13:39:09.375Z,102576.25
2023-05-20T13:42:42.858Z,102570.75
2023-05-20T13:46:19.560Z,102573.41
2023-05-20T13:50:04.736Z,102576.34
2023-05-20T13:53:42.248Z,102576.10
2023-05-20T13:57:13.753Z,102570.05
2023-05-20T14:00:51.936Z,102569.77
2023-05-20T14:04:28.289Z,102564.16
2023-05-20T14:08:06.417Z,102564.95
2023-05-20T14:11:43.679Z,102556.05
2023-05-20T14:15:21.877Z,102556.73
2023-05-20T14:18:58.979Z,102557.20
2023-05-20T14:22:45.737Z,102551.06
2023-05-20T14:26:14.133Z,102547.16
2023-05-20T14:29:51.818Z,102542.93
2023-05-20T14:33:33.661Z,102539.38
2023-05-20T14:37:10.261Z,102538.59
2023-05-20T14:40:53.019Z,102533.30
2023-05-20T14:44:24.433Z,102530.20
2023-05-20T14:48:07.940Z,102528.62
2023-05-20T14:51:38.008Z,102533.26
2023-05-20T14:55:15.676Z,102532.48
2023-05-20T14:58:53.263Z,102525.29
2023-05-20T15:02:31.091Z,102522.35
2023-05-20T15:06:08.673Z,102516.71
2023-05-20T15:09:46.417Z,102506.67
2023-05-20T15:13:24.157Z,102499.28
2023-05-20T15:17:01.788Z,102492.02
2023-05-20T15:20:39.602Z,102487.52
2023-05-20T15:24:16.874Z,102477.15
2023-05-20T15:27:54.483Z,102473.16
2023-05-20T15:31:32.475Z,102472.64
2023-05-20T15:35:10.170Z,102470.12
2023-05-20T15:38:47.363Z,102465.16
2023-05-20T15:42:25.894Z,102457.35
2023-05-20T15:46:02.822Z,102454.48
2023-05-20T15:49:41.086Z,102450.20
2023-05-20T15:53:18.283Z,102453.24
2023-05-20T15:56:56.225Z,102452.48
2023-05-20T16:00:33.987Z,102451.02
2023-05-20T16:04:12.523Z,102443.95
2023-05-20T16:07:56.196Z,102440.89
2023-05-20T16:11:54.934Z,102439.92
2023-05-20T16:15:36.935Z,102431.92
2023-05-20T16:19:08.528Z,102427.13
2023-05-20T16:22:45.132Z,102424.48
2023-05-20T16:26:23.247Z,102429.43
2023-05-20T16:29:56.935Z,102425.85
2023-05-20T16:33:34.563Z,102420.14
2023-05-20T16:37:11.840Z,102417.24
2023-05-20T16:40:54.260Z,102410.77
2023-05-20T16:44:26.490Z,102410.27
2023-05-20T16:48:04.646Z,102404.10
2023-05-20T16:51:41.776Z,102403.52
2023-05-20T16:55:19.398Z,102408.80
2023-05-20T16:58:57.257Z,102404.16
2023-05-20T17:02:35.465Z,102407.86
2023-05-20T17:06:12.593Z,102403.95
2023-05-20T17:09:50.013Z,102409.02
2023-05-20T17:13:27.495Z,102399.09
2023-05-20T17:17:09.989Z,102397.91
2023-05-20T17:20:43.466Z,102396.25
2023-05-20T17:24:21.307Z,102392.98
2023-05-20T17:27:58.071Z,102394.80
2023-05-20T17:31:36.280Z,102399.19
2023-05-20T17:35:13.991Z,102394.41
2023-05-20T17:38:52.016Z,102396.80
2023-05-20T17:42:29.294Z,102401.48
2023-05-20T17:46:06.743Z,102399.13
2023-05-20T17:49:46.279Z,102398.15
2023-05-20T17:53:22.519Z,102399.42
2023-05-20T17:57:00.251Z,102401.40
2023-05-20T18:00:42.364Z,102400.02
2023-05-20T18:04:15.849Z,102402.06
2023-05-20T18:07:53.539Z,102398.31
2023-05-20T18:11:32.469Z,102396.34
2023-05-20T18:15:09.303Z,102392.91
2023-05-20T18:18:46.630Z,102389.20
2023-05-20T18:22:23.669Z,102391.14
2023-05-20T18:26:06.580Z,102386.40
2023-05-20T18:29:39.291Z,102380.45
2023-05-20T18:33:16.870Z,102385.56
2023-05-20T18:36:54.705Z,102386.86
2023-05-20T18:40:32.508Z,102383.39
2023-05-20T18:44:10.010Z,102381.52
2023-05-20T18:47:47.589Z,102377.60
2023-05-20T18:51:26.590Z,102378.60
2023-05-20T18:55:03.215Z,102378.41
2023-05-20T18:58:41.038Z,102376.83
2023-05-20T19:02:18.158Z,102375.88
2023-05-20T19:05:56.089Z,102375.59
2023-05-20T19:09:33.444Z,102375.67
2023-05-20T19:13:11.394Z,102371.38
2023-05-20T19:16:49.373Z,102370.95
2023-05-20T19:20:26.682Z,102370.90
2023-05-20T19:24:04.381Z,102369.84
2023-05-20T19:27:41.483Z,102366.49
2023-05-20T19:31:21.354Z,102368.77
2023-05-20T19:34:57.079Z,102377.89
2023-05-20T19:38:34.657Z,102376.99
2023-05-20T19:42:12.589Z,102373.97
2023-05-20T19:45:50.261Z,102378.36
2023-05-20T19:49:29.667Z,102373.09
2023-05-20T19:53:07.746Z,102372.03
2023-05-20T19:56:43.085Z,102379.20
2023-05-20T20:00:21.806Z,102379.92
2023-05-20T20:04:00.580Z,102376.58
2023-05-20T20:07:36.238Z,102375.90
2023-05-20T20:11:14.287Z,102369.71
2023-05-20T20:14:52.239Z,102370.02
2023-05-20T20:18:32.904Z,102372.84
2023-05-20T20:22:06.670Z,102366.65
2023-05-20T20:26:05.420Z,102365.41
2023-05-20T20:29:22.560Z,102363.95
2023-05-20T20:32:59.524Z,102360.69
2023-05-20T20:36:37.892Z,102359.20
2023-05-20T20:40:15.260Z,102355.81
2023-05-20T20:43:53.156Z,102353.27
2023-05-20T20:51:08.384Z,102355.24
2023-05-20T20:54:47.960Z,102354.13
2023-05-20T20:58:23.392Z,102352.54
2023-05-20T21:02:01.957Z,102355.16
2023-05-20T21:05:50.426Z,102356.77
2023-05-20T21:09:29.511Z,102352.74
2023-05-20T21:13:00.538Z,102353.57
2023-05-20T21:16:42.297Z,102346.86
2023-05-20T21:20:10.911Z,102349.99
2023-05-20T21:23:53.031Z,102352.92
2023-05-20T21:27:24.988Z,102346.72
2023-05-20T21:31:10.416Z,102345.98
2023-05-20T21:34:41.830Z,102342.13
2023-05-20T21:38:17.683Z,102342.71
2023-05-20T21:41:56.002Z,102338.95
2023-05-20T21:45:33.184Z,102340.58
2023-05-20T21:49:10.828Z,102338.26
2023-05-20T21:52:48.406Z,102342.42
2023-05-20T21:56:26.668Z,102338.30
2023-05-20T22:00:16.267Z,102338.74
2023-05-20T22:03:47.876Z,102335.19
2023-05-20T22:07:19.534Z,102332.88
2023-05-20T22:11:00.918Z,102331.16
2023-05-20T22:14:35.506Z,102332.45
2023-05-20T22:18:15.054Z,102335.46
2023-05-20T22:21:51.266Z,102343.05
2023-05-20T22:25:30.608Z,102353.21
2023-05-20T22:29:06.632Z,102346.29
2023-05-20T22:32:43.886Z,102341.05
2023-05-20T22:36:22.532Z,102332.69
2023-05-20T22:40:04.803Z,102328.81
2023-05-20T22:43:37.048Z,102328.82
2023-05-20T22:47:14.162Z,102331.45
2023-05-20T22:50:51.811Z,102331.60
2023-05-20T22:54:29.671Z,102331.44
2023-05-20T22:58:08.318Z,102327.54
2023-05-20T23:01:46.206Z,102328.58
2023-05-20T23:05:22.099Z,102327.98
2023-05-20T23:08:59.784Z,102329.55
2023-05-20T23:12:37.562Z,102327.88
2023-05-20T23:16:17.129Z,102323.66
2023-05-20T23:19:53.827Z,102322.67
2023-05-20T23:23:32.074Z,102323.25
2023-05-20T23:27:08.353Z,102331.21
2023-05-20T23:30:46.065Z,102334.56
2023-05-20T23:34:27.366Z,102331.40
2023-05-20T23:38:00.975Z,102331.72
2023-05-20T23:41:38.674Z,102327.97
2023-05-20T23:45:16.357Z,102325.95
2023-05-20T23:48:53.960Z,102329.52
2023-05-20T23:52:32.074Z,102328.73
2023-05-20T23:56:09.508Z,102327.56
2023-05-20T23:59:49.134Z,102323.85
